createdAt,value
2022-11-20T00:00:29.689Z,17.5
2022-11-20T00:10:29.563Z,17.4
2022-11-20T00:20:29.698Z,17.3
2022-11-20T00:30:29.965Z,17.3
2022-11-20T00:40:29.692Z,17.3
2022-11-20T00:50:29.551Z,17.2
2022-11-20T01:00:29.664Z,17.4
2022-11-20T01:10:29.551Z,17.4
2022-11-20T01:20:29.671Z,17.3
2022-11-20T01:30:29.730Z,17.2
2022-11-20T01:40:29.640Z,17.1
2022-11-20T01:50:29.735Z,17.1
2022-11-20T02:00:29.677Z,17
2022-11-20T02:10:29.735Z,16.9
2022-11-20T02:20:29.635Z,16.9
2022-11-20T02:30:29.716Z,16.9
2022-11-20T02:40:29.622Z,16.8
2022-11-20T02:50:29.723Z,16.8
2022-11-20T03:00:29.818Z,16.7
2022-11-20T03:10:29.723Z,16.7
2022-11-20T03:20:29.829Z,16.7
2022-11-20T03:30:30.846Z,16.7
2022-11-20T03:40:29.804Z,16.6
2022-11-20T03:50:29.703Z,16.6
2022-11-20T04:00:29.799Z,16.6
2022-11-20T04:10:29.701Z,16.5
2022-11-20T04:20:29.800Z,16.5
2022-11-20T04:30:29.890Z,16.5
2022-11-20T04:40:29.796Z,16.5
2022-11-20T04:50:29.895Z,16.5
2022-11-20T05:00:29.786Z,16.5
2022-11-20T05:10:29.880Z,16.4
2022-11-20T05:20:29.783Z,16.7
2022-11-20T05:30:29.883Z,18.8
2022-11-20T05:40:29.988Z,18.6
2022-11-20T05:50:29.872Z,18.1
2022-11-20T06:00:29.982Z,17.7
2022-11-20T06:10:29.867Z,17.5
2022-11-20T06:20:29.972Z,17.3
2022-11-20T06:30:29.861Z,18.8
2022-11-20T06:40:29.976Z,19.2
2022-11-20T06:50:29.851Z,18.6
2022-11-20T07:00:30.116Z,18.2
2022-11-20T07:10:30.063Z,17.9
2022-11-20T07:20:29.969Z,17.6
2022-11-20T07:30:30.054Z,19.5
2022-11-20T07:40:29.952Z,19.3
2022-11-20T07:50:30.041Z,18.8
2022-11-20T08:00:29.982Z,18.4
2022-11-20T08:10:30.037Z,18.4
2022-11-20T08:20:29.933Z,19.8
2022-11-20T08:30:30.044Z,19.4
2022-11-20T08:40:30.125Z,18.9
2022-11-20T08:50:30.043Z,18.5
2022-11-20T09:00:30.143Z,18.2
2022-11-20T09:10:30.089Z,17.9
2022-11-20T09:20:30.135Z,17.7
2022-11-20T09:30:30.028Z,17.6
2022-11-20T09:40:30.126Z,17.5
2022-11-20T09:50:30.213Z,17.4
2022-11-20T10:00:30.128Z,17.3
2022-11-20T10:10:30.233Z,17.3
2022-11-20T10:20:30.115Z,17.4
2022-11-20T10:30:30.228Z,17.3
2022-11-20T10:40:30.103Z,17.4
2022-11-20T10:50:30.209Z,17.4
2022-11-20T11:00:30.113Z,17.5
2022-11-20T11:10:30.210Z,17.6
2022-11-20T11:20:30.310Z,17.6
2022-11-20T11:30:30.207Z,17.7
2022-11-20T11:40:30.301Z,17.8
2022-11-20T11:50:30.198Z,17.8
2022-11-20T12:00:30.311Z,17.8
2022-11-20T12:10:30.244Z,17.7
2022-11-20T12:20:30.346Z,17.5
2022-11-20T12:30:30.259Z,17.5
2022-11-20T12:40:30.372Z,17.4
2022-11-20T12:50:30.553Z,17.4
2022-11-20T13:00:30.362Z,17.3
2022-11-20T13:10:30.259Z,17.3
2022-11-20T13:20:30.375Z,17.2
2022-11-20T13:30:30.488Z,17.2
2022-11-20T13:40:30.339Z,17.1
2022-11-20T13:50:30.456Z,17
2022-11-20T14:00:30.441Z,17
2022-11-20T14:10:32.233Z,16.9
2022-11-20T14:20:30.344Z,16.9
2022-11-20T14:30:30.460Z,16.9
2022-11-20T14:40:30.341Z,16.9
2022-11-20T14:50:30.450Z,16.9
2022-11-20T15:00:30.334Z,17.7
2022-11-20T15:10:30.477Z,19
2022-11-20T15:20:30.525Z,18.6
2022-11-20T15:30:30.444Z,18.3
2022-11-20T15:40:30.548Z,17.9
2022-11-20T15:50:30.440Z,17.7
2022-11-20T16:00:30.542Z,17.4
2022-11-20T16:10:30.414Z,17.3
2022-11-20T16:20:30.608Z,17.8
2022-11-20T16:30:31.374Z,19.2
2022-11-20T16:40:30.682Z,18.9
2022-11-20T16:50:30.494Z,18.3
2022-11-20T17:00:30.582Z,18.1
2022-11-20T17:10:30.557Z,17.8
2022-11-20T17:20:30.642Z,17.6
2022-11-20T17:30:30.560Z,17.4
2022-11-20T17:40:30.577Z,17.3
2022-11-20T17:50:30.711Z,17.9
2022-11-20T18:00:30.704Z,19.5
2022-11-20T18:10:30.693Z,19.1
2022-11-20T18:20:34.096Z,18.6
2022-11-20T18:30:30.676Z,18.3
2022-11-20T18:40:30.561Z,18
2022-11-20T18:50:30.658Z,17.7
2022-11-20T19:00:30.758Z,18.3
2022-11-20T19:10:30.660Z,19.8
2022-11-20T19:20:30.760Z,19.2
2022-11-20T19:30:30.655Z,18.9
2022-11-20T19:40:31.032Z,18.5
2022-11-20T19:50:30.645Z,18.2
2022-11-20T20:00:32.708Z,18
2022-11-20T20:10:30.648Z,17.8
2022-11-20T20:20:30.756Z,17.7
2022-11-20T20:30:30.839Z,17.6
2022-11-20T20:40:30.741Z,17.5
2022-11-20T20:50:30.840Z,17.4
2022-11-20T21:00:30.755Z,17.4
2022-11-20T21:10:30.831Z,17.4
2022-11-20T21:20:30.724Z,17.3
2022-11-20T21:30:30.834Z,17.3
2022-11-20T21:40:30.739Z,17.3
2022-11-20T21:50:30.848Z,17.3
2022-11-20T22:00:30.734Z,17.2
2022-11-20T22:10:30.839Z,17.1
2022-11-20T22:20:30.937Z,17.1
2022-11-20T22:30:30.838Z,17.1
2022-11-20T22:40:30.786Z,16.9
2022-11-20T22:50:30.864Z,16.8
2022-11-20T23:00:30.974Z,16.8
2022-11-20T23:10:30.865Z,16.6
2022-11-20T23:20:30.975Z,16.7
2022-11-20T23:30:30.878Z,16.7
2022-11-20T23:40:30.973Z,16.6
2022-11-20T23:50:30.853Z,16.6
